sensor_id;sensor_type;location;lat;lon;timestamp;pressure;altitude;pressure_sealevel;temperature;humidity
83056;BME280;72881;43.514;1.510;2023-09-19T22:03:53;99955.34;;;23.55;58.44
83056;BME280;72881;43.514;1.510;2023-09-19T22:06:19;99955.34;;;23.55;58.71
83056;BME280;72881;43.514;1.510;2023-09-19T22:08:48;99948.22;;;23.54;58.58
83056;BME280;72881;43.514;1.510;2023-09-19T22:11:18;99939.44;;;23.52;58.82
83056;BME280;72881;43.514;1.510;2023-09-19T22:13:45;99944.91;;;23.52;58.35
83056;BME280;72881;43.514;1.510;2023-09-19T22:16:13;99937.81;;;23.51;58.82
83056;BME280;72881;43.514;1.510;2023-09-19T22:18:40;99936.16;;;23.50;58.63
83056;BME280;72881;43.514;1.510;2023-09-19T22:21:06;99936.16;;;23.50;58.61
83056;BME280;72881;43.514;1.510;2023-09-19T22:23:50;99936.38;;;23.49;58.73
83056;BME280;72881;43.514;1.510;2023-09-19T22:26:17;99927.34;;;23.48;58.63
83056;BME280;72881;43.514;1.510;2023-09-19T22:28:45;99936.63;;;23.47;58.69
83056;BME280;72881;43.514;1.510;2023-09-19T22:31:19;99947.56;;;23.47;58.68
83056;BME280;72881;43.514;1.510;2023-09-19T22:33:48;99946.72;;;23.46;58.79
83056;BME280;72881;43.514;1.510;2023-09-19T22:36:19;99944.25;;;23.45;58.61
83056;BME280;72881;43.514;1.510;2023-09-19T22:38:56;99937.13;;;23.44;58.71
83056;BME280;72881;43.514;1.510;2023-09-19T22:41:37;99927.28;;;23.43;58.53
83056;BME280;72881;43.514;1.510;2023-09-19T22:44:04;99926.66;;;23.41;58.65
83056;BME280;72881;43.514;1.510;2023-09-19T22:46:31;99923.94;;;23.41;58.39
83056;BME280;72881;43.514;1.510;2023-09-19T22:48:56;99930.00;;;23.43;58.32
83056;BME280;72881;43.514;1.510;2023-09-19T22:51:25;99930.59;;;23.45;58.53
83056;BME280;72881;43.514;1.510;2023-09-19T22:54:07;99930.34;;;23.46;58.57
83056;BME280;72881;43.514;1.510;2023-09-19T22:56:36;99920.22;;;23.47;58.57
83056;BME280;72881;43.514;1.510;2023-09-19T22:59:02;99927.34;;;23.48;58.68
83056;BME280;72881;43.514;1.510;2023-09-19T23:01:29;99918.06;;;23.49;58.69
83056;BME280;72881;43.514;1.510;2023-09-19T23:04:01;99911.78;;;23.49;58.68
83056;BME280;72881;43.514;1.510;2023-09-19T23:06:40;99901.44;;;23.51;58.76
83056;BME280;72881;43.514;1.510;2023-09-19T23:09:08;99897.63;;;23.52;58.55
83056;BME280;72881;43.514;1.510;2023-09-19T23:11:34;99897.91;;;23.50;58.72
83056;BME280;72881;43.514;1.510;2023-09-19T23:14:00;99891.09;;;23.53;58.49
83056;BME280;72881;43.514;1.510;2023-09-19T23:16:26;99903.94;;;23.52;58.72
83056;BME280;72881;43.514;1.510;2023-09-19T23:19:02;99897.38;;;23.53;58.59
83056;BME280;72881;43.514;1.510;2023-09-19T23:21:46;99893.56;;;23.54;58.72
83056;BME280;72881;43.514;1.510;2023-09-19T23:24:12;99896.81;;;23.51;58.46
83056;BME280;72881;43.514;1.510;2023-09-19T23:26:43;99895.16;;;23.50;58.78
83056;BME280;72881;43.514;1.510;2023-09-19T23:29:11;99901.69;;;23.49;58.60
83056;BME280;72881;43.514;1.510;2023-09-19T23:31:38;99903.78;;;23.42;57.71
83056;BME280;72881;43.514;1.510;2023-09-19T23:34:05;99901.88;;;23.42;58.54
83056;BME280;72881;43.514;1.510;2023-09-19T23:36:32;99895.56;;;23.42;58.99
83056;BME280;72881;43.514;1.510;2023-09-19T23:38:58;99881.91;;;23.42;58.40
83056;BME280;72881;43.514;1.510;2023-09-19T23:41:23;99891.75;;;23.43;58.55
83056;BME280;72881;43.514;1.510;2023-09-19T23:43:50;99888.44;;;23.41;58.68
83056;BME280;72881;43.514;1.510;2023-09-19T23:46:15;99888.44;;;23.41;58.50
83056;BME280;72881;43.514;1.510;2023-09-19T23:48:41;99886.78;;;23.40;58.49
83056;BME280;72881;43.514;1.510;2023-09-19T23:51:06;99877.19;;;23.37;58.49
83056;BME280;72881;43.514;1.510;2023-09-19T23:53:34;99880.16;;;23.36;58.22
83056;BME280;72881;43.514;1.510;2023-09-19T23:56:00;99879.34;;;23.35;58.53
83056;BME280;72881;43.514;1.510;2023-09-19T23:58:25;99868.66;;;23.34;58.42
